Messwerte Salta

Temperatur

Temperatur
°C
1575734400 13.00 13.00 25
1575738000 14.00 14.00 25
1575741600 15.00 15.00 25
1575745200 16.00 16.00 25
1575748800 17.00 17.00 25
1575752400 18.00 18.00 23
1575756000 19.00 19.00 22
1575759600 20.00 20.00 21
1575763200 21.00 21.00 21
1575766800 22.00 22.00
1575770400 23.00 23.00
1575774000 0.00 0.00
1575777600 1.00 1.00 20
1575781200 2.00 2.00 20
1575784800 3.00 3.00 19
1575788400 4.00 4.00 19
1575792000 5.00 5.00 19
1575795600 6.00 6.00 16
1575799200 7.00 7.00 16
1575802800 8.00 8.00
1575806400 9.00 9.00 22
1575810000 10.00 10.00 23
1575813600 11.00 11.00 24
1575817200 12.00 12.00 26

Aktuellste Messwerte

Wettercharakter
Wetter: freundlich
Temperatur
26 °C
Feuchtigkeit
55 %
Wind
5 km/hWindrichtung: Nord
Luftdruck
1014 hPa
Messzeit: 8. Dezember 2019, 12.00Datenquelle: METAR

Weitere Messstationen in der Nähe

Messstation Temperatur Entfernung
Jujuy 28 °C 66 km
Tucuman 23 °C 225 km
Yacuiba 27 °C 372 km
Tarija 23 °C 375 km
Calama 21 °C 435 km

Wind

Windrichtung Böen Mittelwind
° km/h km/h
1575734400 13.00 12.00 - 13.00 50° 10
1575738000 14.00 13.00 - 14.00 50° 20
1575741600 15.00 14.00 - 15.00 50° 20
1575745200 16.00 15.00 - 16.00 20° 20
1575748800 17.00 16.00 - 17.00 360° 50 25
1575752400 18.00 17.00 - 18.00 320° 20
1575756000 19.00 18.00 - 19.00 360° 10
1575759600 20.00 19.00 - 20.00 50° 10
1575763200 21.00 20.00 - 21.00 360° 5
1575766800 22.00 21.00 - 22.00
1575770400 23.00 22.00 - 23.00
1575774000 0.00 23.00 - 0.00
1575777600 1.00 0.00 - 1.00 360° 5
1575781200 2.00 1.00 - 2.00 320° 5
1575784800 3.00 2.00 - 3.00 320° 5
1575788400 4.00 3.00 - 4.00 50° 5
1575792000 5.00 4.00 - 5.00 0
1575795600 6.00 5.00 - 6.00 320° 5
1575799200 7.00 6.00 - 7.00 230° 5
1575802800 8.00 7.00 - 8.00
1575806400 9.00 8.00 - 9.00 360° 5
1575810000 10.00 9.00 - 10.00 230° 5
1575813600 11.00 10.00 - 11.00 180° 5
1575817200 12.00 11.00 - 12.00 340° 5

Ihre Wetterstation

Fehlt Ihre Wetterstation auf unserem Portal?

Schreiben Sie an network@meteonews.ch

Klima

Wann ist es am wärmsten? Wann regnet es am wenigsten? Unsere Klimadaten geben Auskunft.